sensor_id;sensor_type;location;lat;lon;timestamp;P1;durP1;ratioP1;P2;durP2;ratioP2
13592;SDS011;6867;50.998;4.250;2023-05-10T00:00:53;13.77;;;7.90;;
13592;SDS011;6867;50.998;4.250;2023-05-10T00:03:19;15.38;;;7.93;;
13592;SDS011;6867;50.998;4.250;2023-05-10T00:05:46;16.77;;;7.70;;
13592;SDS011;6867;50.998;4.250;2023-05-10T00:08:14;17.47;;;8.17;;
13592;SDS011;6867;50.998;4.250;2023-05-10T00:10:41;17.77;;;8.48;;
13592;SDS011;6867;50.998;4.250;2023-05-10T00:13:07;13.70;;;8.50;;
13592;SDS011;6867;50.998;4.250;2023-05-10T00:15:34;14.90;;;8.57;;
13592;SDS011;6867;50.998;4.250;2023-05-10T00:18:01;19.25;;;9.23;;
13592;SDS011;6867;50.998;4.250;2023-05-10T00:20:27;16.42;;;9.18;;
13592;SDS011;6867;50.998;4.250;2023-05-10T00:22:54;17.13;;;8.73;;
13592;SDS011;6867;50.998;4.250;2023-05-10T00:25:22;15.32;;;8.43;;
13592;SDS011;6867;50.998;4.250;2023-05-10T00:27:49;15.03;;;8.57;;
13592;SDS011;6867;50.998;4.250;2023-05-10T00:30:16;16.48;;;8.50;;
13592;SDS011;6867;50.998;4.250;2023-05-10T00:32:43;18.63;;;8.32;;
13592;SDS011;6867;50.998;4.250;2023-05-10T00:35:09;17.40;;;9.82;;
13592;SDS011;6867;50.998;4.250;2023-05-10T00:37:36;15.73;;;8.60;;
13592;SDS011;6867;50.998;4.250;2023-05-10T00:40:03;15.23;;;8.43;;
13592;SDS011;6867;50.998;4.250;2023-05-10T00:42:32;22.15;;;8.52;;
13592;SDS011;6867;50.998;4.250;2023-05-10T00:44:59;18.42;;;10.07;;
13592;SDS011;6867;50.998;4.250;2023-05-10T00:47:25;13.90;;;8.73;;
13592;SDS011;6867;50.998;4.250;2023-05-10T00:49:52;16.55;;;8.98;;
13592;SDS011;6867;50.998;4.250;2023-05-10T00:52:19;13.80;;;8.65;;
13592;SDS011;6867;50.998;4.250;2023-05-10T00:54:48;14.02;;;8.65;;
13592;SDS011;6867;50.998;4.250;2023-05-10T00:57:15;16.17;;;8.48;;
13592;SDS011;6867;50.998;4.250;2023-05-10T00:59:43;16.50;;;7.35;;
13592;SDS011;6867;50.998;4.250;2023-05-10T01:02:10;16.10;;;8.33;;
13592;SDS011;6867;50.998;4.250;2023-05-10T01:04:38;16.55;;;8.60;;
13592;SDS011;6867;50.998;4.250;2023-05-10T01:07:05;16.33;;;8.32;;
13592;SDS011;6867;50.998;4.250;2023-05-10T01:09:32;18.17;;;8.70;;
13592;SDS011;6867;50.998;4.250;2023-05-10T01:11:59;14.77;;;8.05;;
13592;SDS011;6867;50.998;4.250;2023-05-10T01:14:28;13.10;;;7.35;;
13592;SDS011;6867;50.998;4.250;2023-05-10T01:16:56;13.80;;;8.45;;
13592;SDS011;6867;50.998;4.250;2023-05-10T01:19:23;16.33;;;8.15;;
13592;SDS011;6867;50.998;4.250;2023-05-10T01:21:55;16.63;;;9.18;;
13592;SDS011;6867;50.998;4.250;2023-05-10T01:24:46;15.18;;;7.85;;
13592;SDS011;6867;50.998;4.250;2023-05-10T01:27:47;17.80;;;8.60;;
13592;SDS011;6867;50.998;4.250;2023-05-10T01:33:24;16.13;;;8.48;;
13592;SDS011;6867;50.998;4.250;2023-05-10T01:35:55;16.97;;;9.43;;
13592;SDS011;6867;50.998;4.250;2023-05-10T01:38:31;15.88;;;9.70;;
13592;SDS011;6867;50.998;4.250;2023-05-10T01:41:07;17.95;;;9.88;;
13592;SDS011;6867;50.998;4.250;2023-05-10T01:43:55;24.73;;;10.98;;
13592;SDS011;6867;50.998;4.250;2023-05-10T01:46:30;18.83;;;10.20;;
13592;SDS011;6867;50.998;4.250;2023-05-10T01:49:03;22.63;;;10.55;;
13592;SDS011;6867;50.998;4.250;2023-05-10T01:51:36;21.38;;;11.02;;
13592;SDS011;6867;50.998;4.250;2023-05-10T01:54:06;18.02;;;11.13;;
13592;SDS011;6867;50.998;4.250;2023-05-10T01:56:35;17.55;;;10.68;;
13592;SDS011;6867;50.998;4.250;2023-05-10T01:59:08;19.95;;;10.88;;
13592;SDS011;6867;50.998;4.250;2023-05-10T02:01:41;19.92;;;11.13;;
13592;SDS011;6867;50.998;4.250;2023-05-10T02:04:13;22.23;;;12.82;;
13592;SDS011;6867;50.998;4.250;2023-05-10T02:06:43;19.20;;;11.55;;
13592;SDS011;6867;50.998;4.250;2023-05-10T02:09:11;23.77;;;12.52;;
13592;SDS011;6867;50.998;4.250;2023-05-10T02:11:41;21.07;;;12.10;;
13592;SDS011;6867;50.998;4.250;2023-05-10T02:14:09;21.37;;;12.13;;
13592;SDS011;6867;50.998;4.250;2023-05-10T02:16:39;22.67;;;12.77;;
13592;SDS011;6867;50.998;4.250;2023-05-10T02:19:06;27.13;;;13.80;;
13592;SDS011;6867;50.998;4.250;2023-05-10T02:21:35;25.70;;;14.23;;
13592;SDS011;6867;50.998;4.250;2023-05-10T02:24:05;28.27;;;15.10;;
13592;SDS011;6867;50.998;4.250;2023-05-10T02:26:34;28.77;;;15.48;;
13592;SDS011;6867;50.998;4.250;2023-05-10T02:29:02;32.65;;;15.57;;
13592;SDS011;6867;50.998;4.250;2023-05-10T02:31:32;30.92;;;16.05;;
13592;SDS011;6867;50.998;4.250;2023-05-10T02:33:59;35.03;;;17.45;;
13592;SDS011;6867;50.998;4.250;2023-05-10T02:36:27;34.73;;;17.93;;
13592;SDS011;6867;50.998;4.250;2023-05-10T02:38:57;34.65;;;16.50;;
13592;SDS011;6867;50.998;4.250;2023-05-10T02:41:27;36.43;;;17.17;;
13592;SDS011;6867;50.998;4.250;2023-05-10T02:43:57;34.10;;;17.35;;
13592;SDS011;6867;50.998;4.250;2023-05-10T02:46:27;32.67;;;18.17;;
13592;SDS011;6867;50.998;4.250;2023-05-10T02:48:54;31.63;;;16.55;;
13592;SDS011;6867;50.998;4.250;2023-05-10T02:51:21;32.17;;;17.37;;
13592;SDS011;6867;50.998;4.250;2023-05-10T02:53:51;37.25;;;16.98;;
13592;SDS011;6867;50.998;4.250;2023-05-10T02:56:24;27.83;;;15.83;;
13592;SDS011;6867;50.998;4.250;2023-05-10T02:58:54;29.30;;;17.23;;
13592;SDS011;6867;50.998;4.250;2023-05-10T03:01:21;34.85;;;16.40;;
13592;SDS011;6867;50.998;4.250;2023-05-10T03:03:48;36.90;;;18.23;;
13592;SDS011;6867;50.998;4.250;2023-05-10T03:06:14;32.35;;;17.73;;
13592;SDS011;6867;50.998;4.250;2023-05-10T03:08:41;29.03;;;16.40;;
13592;SDS011;6867;50.998;4.250;2023-05-10T03:11:14;32.50;;;16.67;;
13592;SDS011;6867;50.998;4.250;2023-05-10T03:13:53;38.40;;;17.27;;
13592;SDS011;6867;50.998;4.250;2023-05-10T03:16:29;32.10;;;16.67;;
13592;SDS011;6867;50.998;4.250;2023-05-10T03:19:08;35.33;;;18.25;;
13592;SDS011;6867;50.998;4.250;2023-05-10T03:21:41;37.88;;;17.77;;
13592;SDS011;6867;50.998;4.250;2023-05-10T03:24:11;32.73;;;17.37;;
13592;SDS011;6867;50.998;4.250;2023-05-10T03:26:40;38.17;;;17.83;;
13592;SDS011;6867;50.998;4.250;2023-05-10T03:29:11;36.03;;;18.33;;
13592;SDS011;6867;50.998;4.250;2023-05-10T03:31:40;37.30;;;19.00;;
13592;SDS011;6867;50.998;4.250;2023-05-10T03:34:06;41.50;;;19.67;;
13592;SDS011;6867;50.998;4.250;2023-05-10T03:36:33;40.80;;;19.03;;
13592;SDS011;6867;50.998;4.250;2023-05-10T03:39:00;38.63;;;19.57;;
13592;SDS011;6867;50.998;4.250;2023-05-10T03:41:27;38.87;;;18.50;;
13592;SDS011;6867;50.998;4.250;2023-05-10T03:43:54;38.23;;;19.27;;
13592;SDS011;6867;50.998;4.250;2023-05-10T03:46:22;37.30;;;18.30;;
13592;SDS011;6867;50.998;4.250;2023-05-10T03:48:48;35.47;;;18.50;;
13592;SDS011;6867;50.998;4.250;2023-05-10T03:51:15;35.50;;;18.07;;
13592;SDS011;6867;50.998;4.250;2023-05-10T03:53:41;41.30;;;18.67;;
13592;SDS011;6867;50.998;4.250;2023-05-10T03:56:08;34.80;;;18.73;;
13592;SDS011;6867;50.998;4.250;2023-05-10T03:58:35;34.33;;;18.07;;
13592;SDS011;6867;50.998;4.250;2023-05-10T04:01:02;38.43;;;18.80;;
13592;SDS011;6867;50.998;4.250;2023-05-10T04:03:30;41.67;;;18.90;;
13592;SDS011;6867;50.998;4.250;2023-05-10T04:05:59;40.87;;;20.23;;
13592;SDS011;6867;50.998;4.250;2023-05-10T04:08:26;39.30;;;18.13;;
13592;SDS011;6867;50.998;4.250;2023-05-10T04:10:53;37.40;;;18.53;;
13592;SDS011;6867;50.998;4.250;2023-05-10T04:13:20;36.37;;;17.80;;
13592;SDS011;6867;50.998;4.250;2023-05-10T04:15:47;36.53;;;17.63;;
13592;SDS011;6867;50.998;4.250;2023-05-10T04:18:14;35.60;;;17.87;;
13592;SDS011;6867;50.998;4.250;2023-05-10T04:20:43;36.10;;;17.97;;
13592;SDS011;6867;50.998;4.250;2023-05-10T04:23:10;29.07;;;16.83;;
13592;SDS011;6867;50.998;4.250;2023-05-10T04:25:37;35.77;;;17.73;;
13592;SDS011;6867;50.998;4.250;2023-05-10T04:28:03;39.63;;;18.70;;
13592;SDS011;6867;50.998;4.250;2023-05-10T04:30:31;33.60;;;17.67;;
13592;SDS011;6867;50.998;4.250;2023-05-10T04:32:58;36.30;;;18.67;;
13592;SDS011;6867;50.998;4.250;2023-05-10T04:35:24;34.27;;;16.07;;
13592;SDS011;6867;50.998;4.250;2023-05-10T04:37:52;32.07;;;16.80;;
13592;SDS011;6867;50.998;4.250;2023-05-10T04:40:19;34.33;;;17.67;;
13592;SDS011;6867;50.998;4.250;2023-05-10T04:42:46;32.80;;;17.25;;
13592;SDS011;6867;50.998;4.250;2023-05-10T04:45:13;38.07;;;18.33;;
13592;SDS011;6867;50.998;4.250;2023-05-10T04:47:40;32.43;;;16.23;;
13592;SDS011;6867;50.998;4.250;2023-05-10T04:50:07;35.17;;;15.57;;
13592;SDS011;6867;50.998;4.250;2023-05-10T04:52:34;34.83;;;16.63;;
13592;SDS011;6867;50.998;4.250;2023-05-10T04:55:03;35.43;;;17.03;;
13592;SDS011;6867;50.998;4.250;2023-05-10T04:57:30;29.77;;;15.53;;
13592;SDS011;6867;50.998;4.250;2023-05-10T04:59:56;33.33;;;16.93;;
13592;SDS011;6867;50.998;4.250;2023-05-10T05:02:23;32.25;;;16.40;;
13592;SDS011;6867;50.998;4.250;2023-05-10T05:04:50;32.93;;;16.37;;
13592;SDS011;6867;50.998;4.250;2023-05-10T05:07:16;31.67;;;16.47;;
13592;SDS011;6867;50.998;4.250;2023-05-10T05:09:43;26.93;;;15.13;;
13592;SDS011;6867;50.998;4.250;2023-05-10T05:12:11;32.63;;;16.33;;
13592;SDS011;6867;50.998;4.250;2023-05-10T05:14:39;27.42;;;15.70;;
13592;SDS011;6867;50.998;4.250;2023-05-10T05:17:06;29.75;;;15.80;;
13592;SDS011;6867;50.998;4.250;2023-05-10T05:19:33;30.13;;;16.13;;
13592;SDS011;6867;50.998;4.250;2023-05-10T05:22:00;31.92;;;15.75;;
13592;SDS011;6867;50.998;4.250;2023-05-10T05:24:27;28.95;;;15.80;;
13592;SDS011;6867;50.998;4.250;2023-05-10T05:26:54;31.25;;;16.67;;
13592;SDS011;6867;50.998;4.250;2023-05-10T05:29:22;28.52;;;15.55;;
13592;SDS011;6867;50.998;4.250;2023-05-10T05:31:48;27.10;;;15.50;;
13592;SDS011;6867;50.998;4.250;2023-05-10T05:34:15;31.63;;;16.38;;
13592;SDS011;6867;50.998;4.250;2023-05-10T05:36:42;27.10;;;16.25;;
13592;SDS011;6867;50.998;4.250;2023-05-10T05:39:08;24.20;;;14.63;;
13592;SDS011;6867;50.998;4.250;2023-05-10T05:41:35;28.33;;;16.38;;
13592;SDS011;6867;50.998;4.250;2023-05-10T05:44:02;24.20;;;15.23;;
13592;SDS011;6867;50.998;4.250;2023-05-10T05:46:30;23.42;;;14.45;;
13592;SDS011;6867;50.998;4.250;2023-05-10T05:48:56;24.33;;;14.57;;
13592;SDS011;6867;50.998;4.250;2023-05-10T05:51:23;23.77;;;14.65;;
13592;SDS011;6867;50.998;4.250;2023-05-10T05:53:50;26.25;;;14.68;;
13592;SDS011;6867;50.998;4.250;2023-05-10T05:56:16;27.33;;;16.70;;
13592;SDS011;6867;50.998;4.250;2023-05-10T05:58:49;27.10;;;15.90;;
13592;SDS011;6867;50.998;4.250;2023-05-10T06:01:15;25.55;;;15.55;;
13592;SDS011;6867;50.998;4.250;2023-05-10T06:03:44;27.95;;;17.17;;
13592;SDS011;6867;50.998;4.250;2023-05-10T06:06:10;25.02;;;14.40;;
13592;SDS011;6867;50.998;4.250;2023-05-10T06:08:37;25.65;;;13.55;;
13592;SDS011;6867;50.998;4.250;2023-05-10T06:11:04;21.85;;;14.38;;
13592;SDS011;6867;50.998;4.250;2023-05-10T06:13:30;22.63;;;13.50;;
13592;SDS011;6867;50.998;4.250;2023-05-10T06:16:00;21.60;;;13.68;;
13592;SDS011;6867;50.998;4.250;2023-05-10T06:18:27;23.75;;;13.82;;
13592;SDS011;6867;50.998;4.250;2023-05-10T06:20:55;20.90;;;14.13;;
13592;SDS011;6867;50.998;4.250;2023-05-10T06:23:21;26.50;;;16.88;;
13592;SDS011;6867;50.998;4.250;2023-05-10T06:25:48;24.23;;;14.32;;
13592;SDS011;6867;50.998;4.250;2023-05-10T06:28:15;29.42;;;16.63;;
13592;SDS011;6867;50.998;4.250;2023-05-10T06:30:41;24.90;;;14.77;;
13592;SDS011;6867;50.998;4.250;2023-05-10T06:33:08;29.10;;;16.65;;
13592;SDS011;6867;50.998;4.250;2023-05-10T06:35:35;31.58;;;16.75;;
13592;SDS011;6867;50.998;4.250;2023-05-10T06:38:03;31.25;;;15.57;;
13592;SDS011;6867;50.998;4.250;2023-05-10T06:40:30;25.20;;;16.08;;
13592;SDS011;6867;50.998;4.250;2023-05-10T06:42:57;28.77;;;17.00;;
13592;SDS011;6867;50.998;4.250;2023-05-10T06:45:24;29.65;;;17.17;;
13592;SDS011;6867;50.998;4.250;2023-05-10T06:47:51;30.73;;;16.98;;
13592;SDS011;6867;50.998;4.250;2023-05-10T06:50:18;27.67;;;16.38;;
13592;SDS011;6867;50.998;4.250;2023-05-10T06:52:44;28.65;;;16.05;;
13592;SDS011;6867;50.998;4.250;2023-05-10T06:55:12;28.13;;;16.23;;
13592;SDS011;6867;50.998;4.250;2023-05-10T06:57:39;26.02;;;16.23;;
13592;SDS011;6867;50.998;4.250;2023-05-10T07:00:06;33.75;;;18.23;;
13592;SDS011;6867;50.998;4.250;2023-05-10T07:02:34;27.52;;;17.52;;
13592;SDS011;6867;50.998;4.250;2023-05-10T07:05:01;31.58;;;17.33;;
13592;SDS011;6867;50.998;4.250;2023-05-10T07:07:28;31.45;;;18.80;;
13592;SDS011;6867;50.998;4.250;2023-05-10T07:09:54;33.55;;;18.40;;
13592;SDS011;6867;50.998;4.250;2023-05-10T07:12:23;32.88;;;18.98;;
13592;SDS011;6867;50.998;4.250;2023-05-10T07:14:50;31.35;;;17.75;;
13592;SDS011;6867;50.998;4.250;2023-05-10T07:17:17;35.92;;;17.55;;
13592;SDS011;6867;50.998;4.250;2023-05-10T07:19:44;35.28;;;18.83;;
13592;SDS011;6867;50.998;4.250;2023-05-10T07:22:10;30.67;;;18.02;;
13592;SDS011;6867;50.998;4.250;2023-05-10T07:24:38;29.77;;;17.17;;
13592;SDS011;6867;50.998;4.250;2023-05-10T07:27:04;32.38;;;17.95;;
13592;SDS011;6867;50.998;4.250;2023-05-10T07:29:32;33.40;;;17.77;;
13592;SDS011;6867;50.998;4.250;2023-05-10T07:31:59;31.65;;;16.90;;
13592;SDS011;6867;50.998;4.250;2023-05-10T07:34:26;31.17;;;18.05;;
13592;SDS011;6867;50.998;4.250;2023-05-10T07:36:53;26.13;;;16.67;;
13592;SDS011;6867;50.998;4.250;2023-05-10T07:39:20;24.98;;;15.68;;
13592;SDS011;6867;50.998;4.250;2023-05-10T07:41:46;26.10;;;15.77;;
13592;SDS011;6867;50.998;4.250;2023-05-10T07:44:13;25.05;;;15.18;;
13592;SDS011;6867;50.998;4.250;2023-05-10T07:46:41;23.77;;;13.38;;
13592;SDS011;6867;50.998;4.250;2023-05-10T07:49:08;24.15;;;13.20;;
13592;SDS011;6867;50.998;4.250;2023-05-10T07:51:35;21.02;;;12.80;;
13592;SDS011;6867;50.998;4.250;2023-05-10T07:54:01;23.65;;;13.40;;
13592;SDS011;6867;50.998;4.250;2023-05-10T07:56:29;20.35;;;12.45;;
13592;SDS011;6867;50.998;4.250;2023-05-10T07:58:57;24.60;;;14.10;;
13592;SDS011;6867;50.998;4.250;2023-05-10T08:01:25;23.48;;;12.57;;
13592;SDS011;6867;50.998;4.250;2023-05-10T08:03:53;23.08;;;13.23;;
13592;SDS011;6867;50.998;4.250;2023-05-10T08:06:20;23.70;;;14.32;;
13592;SDS011;6867;50.998;4.250;2023-05-10T08:08:47;29.95;;;17.35;;
13592;SDS011;6867;50.998;4.250;2023-05-10T08:11:15;27.67;;;16.42;;
13592;SDS011;6867;50.998;4.250;2023-05-10T08:13:42;22.95;;;14.77;;
13592;SDS011;6867;50.998;4.250;2023-05-10T08:16:09;25.77;;;14.95;;
13592;SDS011;6867;50.998;4.250;2023-05-10T08:18:36;22.80;;;13.07;;
13592;SDS011;6867;50.998;4.250;2023-05-10T08:21:04;23.50;;;15.20;;
13592;SDS011;6867;50.998;4.250;2023-05-10T08:23:32;30.10;;;15.48;;
13592;SDS011;6867;50.998;4.250;2023-05-10T08:25:59;30.52;;;16.77;;
13592;SDS011;6867;50.998;4.250;2023-05-10T08:28:25;23.25;;;13.63;;
13592;SDS011;6867;50.998;4.250;2023-05-10T08:30:52;22.42;;;12.38;;
13592;SDS011;6867;50.998;4.250;2023-05-10T08:33:18;22.10;;;11.30;;
13592;SDS011;6867;50.998;4.250;2023-05-10T08:35:45;16.20;;;9.88;;
13592;SDS011;6867;50.998;4.250;2023-05-10T08:38:13;16.92;;;9.23;;
13592;SDS011;6867;50.998;4.250;2023-05-10T08:40:41;19.50;;;8.10;;
13592;SDS011;6867;50.998;4.250;2023-05-10T08:43:09;13.93;;;7.63;;
13592;SDS011;6867;50.998;4.250;2023-05-10T08:45:37;16.35;;;8.52;;
13592;SDS011;6867;50.998;4.250;2023-05-10T08:48:05;12.20;;;8.02;;
13592;SDS011;6867;50.998;4.250;2023-05-10T08:50:34;18.33;;;9.30;;
13592;SDS011;6867;50.998;4.250;2023-05-10T08:53:03;13.80;;;8.38;;
13592;SDS011;6867;50.998;4.250;2023-05-10T08:55:33;13.30;;;7.60;;
13592;SDS011;6867;50.998;4.250;2023-05-10T08:58:01;12.63;;;7.82;;
13592;SDS011;6867;50.998;4.250;2023-05-10T09:00:28;15.63;;;7.70;;
13592;SDS011;6867;50.998;4.250;2023-05-10T09:02:55;16.60;;;7.97;;
13592;SDS011;6867;50.998;4.250;2023-05-10T09:05:23;12.05;;;8.07;;
13592;SDS011;6867;50.998;4.250;2023-05-10T09:07:50;14.25;;;8.98;;
13592;SDS011;6867;50.998;4.250;2023-05-10T09:10:17;21.13;;;9.98;;
13592;SDS011;6867;50.998;4.250;2023-05-10T09:12:45;20.88;;;8.93;;
13592;SDS011;6867;50.998;4.250;2023-05-10T09:15:14;14.52;;;9.45;;
13592;SDS011;6867;50.998;4.250;2023-05-10T09:17:44;14.68;;;9.00;;
13592;SDS011;6867;50.998;4.250;2023-05-10T09:20:11;15.13;;;8.93;;
13592;SDS011;6867;50.998;4.250;2023-05-10T09:22:38;18.02;;;9.95;;
13592;SDS011;6867;50.998;4.250;2023-05-10T09:25:06;21.70;;;10.13;;
13592;SDS011;6867;50.998;4.250;2023-05-10T09:27:34;16.08;;;9.00;;
13592;SDS011;6867;50.998;4.250;2023-05-10T09:30:03;14.95;;;8.63;;
13592;SDS011;6867;50.998;4.250;2023-05-10T09:32:38;16.83;;;9.35;;
13592;SDS011;6867;50.998;4.250;2023-05-10T09:35:06;13.27;;;8.80;;
13592;SDS011;6867;50.998;4.250;2023-05-10T09:37:33;15.20;;;8.88;;
13592;SDS011;6867;50.998;4.250;2023-05-10T09:40:00;15.95;;;8.73;;
13592;SDS011;6867;50.998;4.250;2023-05-10T09:42:30;18.17;;;9.35;;
13592;SDS011;6867;50.998;4.250;2023-05-10T09:44:59;17.02;;;8.93;;
13592;SDS011;6867;50.998;4.250;2023-05-10T09:47:28;15.25;;;9.23;;
13592;SDS011;6867;50.998;4.250;2023-05-10T09:49:55;14.13;;;8.75;;
13592;SDS011;6867;50.998;4.250;2023-05-10T09:52:28;15.43;;;9.02;;
13592;SDS011;6867;50.998;4.250;2023-05-10T09:54:55;12.50;;;8.00;;
13592;SDS011;6867;50.998;4.250;2023-05-10T09:57:22;16.05;;;9.30;;
13592;SDS011;6867;50.998;4.250;2023-05-10T09:59:49;16.77;;;7.95;;
13592;SDS011;6867;50.998;4.250;2023-05-10T10:02:18;15.60;;;7.97;;
13592;SDS011;6867;50.998;4.250;2023-05-10T10:04:47;10.13;;;7.28;;
13592;SDS011;6867;50.998;4.250;2023-05-10T10:07:17;11.35;;;7.07;;
13592;SDS011;6867;50.998;4.250;2023-05-10T10:09:49;10.75;;;6.78;;
13592;SDS011;6867;50.998;4.250;2023-05-10T10:12:16;8.93;;;6.40;;
13592;SDS011;6867;50.998;4.250;2023-05-10T10:14:44;8.63;;;6.53;;
13592;SDS011;6867;50.998;4.250;2023-05-10T10:17:12;11.02;;;6.78;;
13592;SDS011;6867;50.998;4.250;2023-05-10T10:19:39;8.55;;;6.00;;
13592;SDS011;6867;50.998;4.250;2023-05-10T10:22:08;7.15;;;5.63;;
13592;SDS011;6867;50.998;4.250;2023-05-10T10:24:37;8.68;;;6.15;;
13592;SDS011;6867;50.998;4.250;2023-05-10T10:27:07;12.95;;;6.45;;
13592;SDS011;6867;50.998;4.250;2023-05-10T10:29:43;9.30;;;6.28;;
13592;SDS011;6867;50.998;4.250;2023-05-10T10:32:19;8.93;;;5.70;;
13592;SDS011;6867;50.998;4.250;2023-05-10T10:34:52;7.95;;;6.35;;
13592;SDS011;6867;50.998;4.250;2023-05-10T10:37:22;7.35;;;5.72;;
13592;SDS011;6867;50.998;4.250;2023-05-10T10:39:48;10.55;;;6.63;;
13592;SDS011;6867;50.998;4.250;2023-05-10T10:42:24;9.30;;;6.00;;
13592;SDS011;6867;50.998;4.250;2023-05-10T10:45:13;8.63;;;6.43;;
13592;SDS011;6867;50.998;4.250;2023-05-10T10:47:40;8.93;;;6.38;;
13592;SDS011;6867;50.998;4.250;2023-05-10T10:50:08;9.07;;;6.72;;
13592;SDS011;6867;50.998;4.250;2023-05-10T10:52:39;10.63;;;6.53;;
13592;SDS011;6867;50.998;4.250;2023-05-10T10:55:07;12.45;;;7.10;;
13592;SDS011;6867;50.998;4.250;2023-05-10T10:57:47;8.98;;;6.15;;
13592;SDS011;6867;50.998;4.250;2023-05-10T11:00:20;10.93;;;6.80;;
13592;SDS011;6867;50.998;4.250;2023-05-10T11:02:52;9.50;;;6.85;;
13592;SDS011;6867;50.998;4.250;2023-05-10T11:08:17;9.88;;;7.07;;
13592;SDS011;6867;50.998;4.250;2023-05-10T11:10:51;11.68;;;7.30;;
13592;SDS011;6867;50.998;4.250;2023-05-10T11:13:29;14.00;;;7.50;;
13592;SDS011;6867;50.998;4.250;2023-05-10T11:15:57;11.25;;;7.78;;
13592;SDS011;6867;50.998;4.250;2023-05-10T11:18:25;13.65;;;8.40;;
13592;SDS011;6867;50.998;4.250;2023-05-10T11:20:52;10.30;;;7.68;;
13592;SDS011;6867;50.998;4.250;2023-05-10T11:23:28;11.20;;;7.28;;
13592;SDS011;6867;50.998;4.250;2023-05-10T11:25:56;9.70;;;7.47;;
13592;SDS011;6867;50.998;4.250;2023-05-10T11:28:23;13.38;;;7.32;;
13592;SDS011;6867;50.998;4.250;2023-05-10T11:30:52;11.30;;;8.10;;
13592;SDS011;6867;50.998;4.250;2023-05-10T11:33:19;11.63;;;7.53;;
13592;SDS011;6867;50.998;4.250;2023-05-10T11:35:46;11.27;;;6.47;;
13592;SDS011;6867;50.998;4.250;2023-05-10T11:38:13;10.88;;;7.50;;
13592;SDS011;6867;50.998;4.250;2023-05-10T11:40:42;9.98;;;7.18;;
13592;SDS011;6867;50.998;4.250;2023-05-10T11:43:09;9.80;;;7.68;;
13592;SDS011;6867;50.998;4.250;2023-05-10T11:45:37;10.18;;;7.60;;
13592;SDS011;6867;50.998;4.250;2023-05-10T11:48:04;10.82;;;6.85;;
13592;SDS011;6867;50.998;4.250;2023-05-10T11:50:31;10.85;;;7.32;;
13592;SDS011;6867;50.998;4.250;2023-05-10T11:52:58;10.27;;;7.18;;
13592;SDS011;6867;50.998;4.250;2023-05-10T11:55:25;10.98;;;7.18;;
13592;SDS011;6867;50.998;4.250;2023-05-10T11:57:53;10.75;;;7.07;;
13592;SDS011;6867;50.998;4.250;2023-05-10T12:00:20;9.70;;;6.47;;
13592;SDS011;6867;50.998;4.250;2023-05-10T12:02:47;10.80;;;7.20;;
13592;SDS011;6867;50.998;4.250;2023-05-10T12:05:15;9.98;;;7.30;;
13592;SDS011;6867;50.998;4.250;2023-05-10T12:07:42;10.05;;;7.15;;
13592;SDS011;6867;50.998;4.250;2023-05-10T12:10:09;8.88;;;6.50;;
13592;SDS011;6867;50.998;4.250;2023-05-10T12:12:39;12.88;;;7.18;;
13592;SDS011;6867;50.998;4.250;2023-05-10T12:15:12;9.57;;;6.68;;
13592;SDS011;6867;50.998;4.250;2023-05-10T12:17:44;12.15;;;6.65;;
13592;SDS011;6867;50.998;4.250;2023-05-10T12:20:18;8.38;;;6.15;;
13592;SDS011;6867;50.998;4.250;2023-05-10T12:22:46;9.75;;;6.70;;
13592;SDS011;6867;50.998;4.250;2023-05-10T12:25:15;10.40;;;6.68;;
13592;SDS011;6867;50.998;4.250;2023-05-10T12:27:47;11.73;;;6.55;;
13592;SDS011;6867;50.998;4.250;2023-05-10T12:30:20;9.10;;;6.47;;
13592;SDS011;6867;50.998;4.250;2023-05-10T12:32:47;9.32;;;6.55;;
13592;SDS011;6867;50.998;4.250;2023-05-10T12:35:14;9.20;;;6.00;;
13592;SDS011;6867;50.998;4.250;2023-05-10T12:37:42;10.55;;;6.53;;
13592;SDS011;6867;50.998;4.250;2023-05-10T12:40:09;11.55;;;7.68;;
13592;SDS011;6867;50.998;4.250;2023-05-10T12:42:38;11.95;;;6.95;;
13592;SDS011;6867;50.998;4.250;2023-05-10T12:45:05;12.00;;;6.72;;
13592;SDS011;6867;50.998;4.250;2023-05-10T12:47:35;12.73;;;6.47;;
13592;SDS011;6867;50.998;4.250;2023-05-10T12:50:02;9.15;;;6.75;;
13592;SDS011;6867;50.998;4.250;2023-05-10T12:52:30;11.50;;;7.18;;
13592;SDS011;6867;50.998;4.250;2023-05-10T12:54:58;11.43;;;6.85;;
13592;SDS011;6867;50.998;4.250;2023-05-10T12:57:25;13.18;;;7.40;;
13592;SDS011;6867;50.998;4.250;2023-05-10T12:59:52;11.73;;;7.30;;
13592;SDS011;6867;50.998;4.250;2023-05-10T13:02:18;10.40;;;7.95;;
13592;SDS011;6867;50.998;4.250;2023-05-10T13:04:47;15.02;;;8.48;;
13592;SDS011;6867;50.998;4.250;2023-05-10T13:07:14;12.32;;;8.68;;
13592;SDS011;6867;50.998;4.250;2023-05-10T13:09:41;13.23;;;7.85;;
13592;SDS011;6867;50.998;4.250;2023-05-10T13:12:08;11.35;;;7.97;;
13592;SDS011;6867;50.998;4.250;2023-05-10T13:14:35;10.98;;;7.40;;
13592;SDS011;6867;50.998;4.250;2023-05-10T13:17:01;10.55;;;7.28;;
13592;SDS011;6867;50.998;4.250;2023-05-10T13:19:28;9.50;;;6.60;;
13592;SDS011;6867;50.998;4.250;2023-05-10T13:21:56;12.73;;;7.55;;
13592;SDS011;6867;50.998;4.250;2023-05-10T13:24:23;12.88;;;8.65;;
13592;SDS011;6867;50.998;4.250;2023-05-10T13:26:49;11.55;;;8.43;;
13592;SDS011;6867;50.998;4.250;2023-05-10T13:29:16;11.52;;;8.38;;
13592;SDS011;6867;50.998;4.250;2023-05-10T13:31:43;14.43;;;8.43;;
13592;SDS011;6867;50.998;4.250;2023-05-10T13:34:10;11.60;;;9.00;;
13592;SDS011;6867;50.998;4.250;2023-05-10T13:36:36;15.55;;;8.57;;
13592;SDS011;6867;50.998;4.250;2023-05-10T13:39:05;12.13;;;8.18;;
13592;SDS011;6867;50.998;4.250;2023-05-10T13:41:32;11.00;;;7.80;;
13592;SDS011;6867;50.998;4.250;2023-05-10T13:43:59;12.18;;;8.85;;
13592;SDS011;6867;50.998;4.250;2023-05-10T13:46:25;14.18;;;8.25;;
13592;SDS011;6867;50.998;4.250;2023-05-10T13:48:52;16.42;;;9.23;;
13592;SDS011;6867;50.998;4.250;2023-05-10T13:51:19;15.07;;;9.27;;
13592;SDS011;6867;50.998;4.250;2023-05-10T13:53:45;13.13;;;9.18;;
13592;SDS011;6867;50.998;4.250;2023-05-10T13:56:14;16.10;;;11.10;;
13592;SDS011;6867;50.998;4.250;2023-05-10T13:58:41;16.45;;;11.35;;
13592;SDS011;6867;50.998;4.250;2023-05-10T14:01:08;14.52;;;9.55;;
13592;SDS011;6867;50.998;4.250;2023-05-10T14:03:34;14.57;;;10.45;;
13592;SDS011;6867;50.998;4.250;2023-05-10T14:06:02;14.10;;;9.50;;
13592;SDS011;6867;50.998;4.250;2023-05-10T14:08:28;14.20;;;10.73;;
13592;SDS011;6867;50.998;4.250;2023-05-10T14:10:56;14.43;;;9.70;;
13592;SDS011;6867;50.998;4.250;2023-05-10T14:13:24;15.55;;;10.45;;
13592;SDS011;6867;50.998;4.250;2023-05-10T14:15:52;15.18;;;10.35;;
13592;SDS011;6867;50.998;4.250;2023-05-10T14:18:19;11.60;;;9.15;;
13592;SDS011;6867;50.998;4.250;2023-05-10T14:20:46;14.73;;;9.50;;
13592;SDS011;6867;50.998;4.250;2023-05-10T14:23:13;14.00;;;9.35;;
13592;SDS011;6867;50.998;4.250;2023-05-10T14:25:40;15.82;;;10.63;;
13592;SDS011;6867;50.998;4.250;2023-05-10T14:28:06;12.43;;;9.82;;
13592;SDS011;6867;50.998;4.250;2023-05-10T14:30:35;13.13;;;9.80;;
13592;SDS011;6867;50.998;4.250;2023-05-10T14:33:02;15.30;;;10.80;;
13592;SDS011;6867;50.998;4.250;2023-05-10T14:35:28;13.07;;;9.80;;
13592;SDS011;6867;50.998;4.250;2023-05-10T14:37:56;14.00;;;8.80;;
13592;SDS011;6867;50.998;4.250;2023-05-10T14:40:22;14.25;;;10.30;;
13592;SDS011;6867;50.998;4.250;2023-05-10T14:42:49;13.90;;;9.77;;
13592;SDS011;6867;50.998;4.250;2023-05-10T14:45:17;13.73;;;9.48;;
13592;SDS011;6867;50.998;4.250;2023-05-10T14:47:46;14.18;;;8.90;;
13592;SDS011;6867;50.998;4.250;2023-05-10T14:50:12;11.48;;;8.35;;
13592;SDS011;6867;50.998;4.250;2023-05-10T14:52:39;11.23;;;8.10;;
13592;SDS011;6867;50.998;4.250;2023-05-10T14:55:06;13.10;;;8.55;;